createdAt,value
2018-09-02T00:01:31.310Z,39.40
2018-09-02T00:04:03.325Z,38.20
2018-09-02T00:06:34.934Z,37.20
2018-09-02T00:09:07.641Z,32.20
2018-09-02T00:11:39.498Z,39.00
2018-09-02T00:14:11.586Z,42.40
2018-09-02T00:16:43.674Z,43.20
2018-09-02T00:19:15.682Z,43.20
2018-09-02T00:21:47.448Z,44.40
2018-09-02T00:24:19.373Z,42.60
2018-09-02T00:26:51.251Z,40.40
2018-09-02T00:29:22.980Z,38.40
2018-09-02T00:31:54.689Z,37.00
2018-09-02T00:34:26.482Z,40.40
2018-09-02T00:36:58.202Z,41.60
2018-09-02T00:39:30.560Z,38.00
2018-09-02T00:42:02.482Z,39.80
2018-09-02T00:44:34.391Z,39.80
2018-09-02T00:47:06.172Z,43.80
2018-09-02T00:49:38.027Z,48.60
2018-09-02T00:52:09.603Z,41.80
2018-09-02T00:54:41.544Z,47.00
2018-09-02T00:57:13.043Z,43.00
2018-09-02T00:59:44.761Z,42.60
2018-09-02T01:02:16.339Z,40.00
2018-09-02T01:04:48.197Z,44.00
2018-09-02T01:07:19.953Z,41.40
2018-09-02T01:09:51.844Z,36.60
2018-09-02T01:12:23.354Z,43.20
2018-09-02T01:14:55.187Z,42.40
2018-09-02T01:17:26.621Z,44.00
2018-09-02T01:19:58.566Z,47.60
2018-09-02T01:22:30.376Z,36.60
2018-09-02T01:25:02.124Z,41.60
2018-09-02T01:27:33.671Z,45.80
2018-09-02T01:30:05.415Z,43.40
2018-09-02T01:32:37.293Z,49.80
2018-09-02T01:35:13.445Z,43.60
2018-09-02T01:37:45.204Z,44.40
2018-09-02T01:40:16.868Z,39.00
2018-09-02T01:42:49.472Z,28.60
2018-09-02T01:45:21.403Z,36.80
2018-09-02T01:47:52.959Z,40.40
2018-09-02T01:50:24.770Z,49.20
2018-09-02T01:52:56.592Z,47.60
2018-09-02T01:55:28.370Z,47.80
2018-09-02T01:57:59.918Z,55.40
2018-09-02T02:00:32.529Z,50.80
2018-09-02T02:10:04.454Z,47.40
2018-09-02T02:12:36.061Z,46.20
2018-09-02T02:15:08.011Z,47.80
2018-09-02T02:17:39.924Z,43.40
2018-09-02T02:20:11.853Z,50.60
2018-09-02T02:22:43.516Z,52.00
2018-09-02T02:25:15.123Z,49.60
2018-09-02T02:27:46.799Z,51.40
2018-09-02T02:30:18.995Z,48.40
2018-09-02T02:32:50.771Z,46.60
2018-09-02T02:35:22.493Z,47.40
2018-09-02T02:37:54.083Z,44.80
2018-09-02T02:40:26.003Z,41.20
2018-09-02T02:42:58.782Z,44.60
2018-09-02T02:45:30.753Z,41.80
2018-09-02T02:48:02.606Z,36.60
2018-09-02T02:50:34.819Z,39.60
2018-09-02T02:53:06.896Z,41.40
2018-09-02T02:55:38.875Z,36.20
2018-09-02T02:58:10.575Z,38.20
2018-09-02T03:00:42.653Z,34.00
2018-09-02T03:03:14.503Z,31.20
2018-09-02T03:05:46.343Z,34.20
2018-09-02T03:08:18.168Z,35.80
2018-09-02T03:10:50.174Z,32.80
2018-09-02T03:13:21.980Z,35.80
2018-09-02T03:15:53.730Z,37.00
2018-09-02T03:18:25.407Z,34.00
2018-09-02T03:20:57.196Z,37.00
2018-09-02T03:23:28.861Z,36.20
2018-09-02T03:26:00.847Z,32.60
2018-09-02T03:28:32.404Z,34.00
2018-09-02T03:31:04.209Z,36.40
2018-09-02T03:33:36.500Z,45.00
2018-09-02T03:36:08.638Z,45.60
2018-09-02T03:38:40.503Z,46.80
2018-09-02T03:41:12.754Z,45.20
2018-09-02T03:43:44.685Z,51.40
2018-09-02T03:46:16.260Z,40.80
2018-09-02T03:48:48.092Z,39.40
2018-09-02T03:51:20.152Z,37.80
2018-09-02T03:53:51.573Z,50.40
2018-09-02T03:56:23.461Z,46.60
2018-09-02T03:58:55.189Z,46.60
2018-09-02T04:01:26.974Z,47.80
2018-09-02T04:03:58.811Z,51.20
2018-09-02T04:06:30.582Z,40.60
2018-09-02T04:09:02.044Z,49.80
2018-09-02T04:11:33.917Z,48.60
2018-09-02T04:14:05.351Z,45.20
2018-09-02T04:16:37.220Z,45.20
2018-09-02T04:19:08.848Z,43.00
2018-09-02T04:21:40.188Z,53.20
2018-09-02T04:24:11.500Z,41.40
2018-09-02T04:26:42.575Z,48.40
2018-09-02T04:29:14.288Z,45.40
2018-09-02T04:31:46.135Z,35.60
2018-09-02T04:34:17.720Z,47.60
2018-09-02T04:36:49.695Z,42.00
2018-09-02T04:39:21.539Z,39.40
2018-09-02T04:41:53.480Z,39.40
2018-09-02T04:44:25.226Z,46.60
2018-09-02T04:46:57.094Z,38.20
2018-09-02T04:49:28.576Z,40.40
2018-09-02T04:52:00.119Z,34.80
2018-09-02T04:54:32.712Z,37.60
2018-09-02T04:57:05.951Z,38.40
2018-09-02T04:59:37.750Z,37.20
2018-09-02T05:02:11.596Z,33.20
2018-09-02T05:04:43.318Z,39.80
2018-09-02T05:07:16.148Z,37.40
2018-09-02T05:09:48.008Z,44.40
2018-09-02T05:12:20.050Z,38.40
2018-09-02T05:14:51.694Z,35.40
2018-09-02T05:17:25.974Z,40.20
2018-09-02T05:19:58.233Z,38.00
2018-09-02T05:22:31.119Z,40.80
2018-09-02T05:25:02.789Z,40.40
2018-09-02T05:27:34.781Z,37.20
2018-09-02T05:30:07.152Z,38.80
2018-09-02T05:32:39.096Z,34.60
2018-09-02T05:35:10.989Z,32.40
2018-09-02T05:37:43.275Z,44.20
2018-09-02T05:40:15.127Z,31.00
2018-09-02T05:42:47.760Z,37.00
2018-09-02T05:45:19.409Z,34.80
2018-09-02T05:47:51.133Z,42.00
2018-09-02T05:50:22.847Z,34.80
2018-09-02T05:52:54.611Z,30.80
2018-09-02T05:55:26.580Z,41.80
2018-09-02T05:57:58.708Z,36.40
2018-09-02T06:00:30.332Z,32.20
2018-09-02T06:03:01.976Z,34.80
2018-09-02T06:05:33.864Z,41.40
2018-09-02T06:08:05.468Z,46.80
2018-09-02T06:10:37.416Z,39.40
2018-09-02T06:13:09.265Z,38.20
2018-09-02T06:15:40.883Z,32.00
2018-09-02T06:18:12.810Z,34.60
2018-09-02T06:20:44.633Z,32.80
2018-09-02T06:23:16.511Z,34.00
2018-09-02T06:25:48.124Z,30.20
2018-09-02T06:28:19.967Z,38.60
2018-09-02T06:30:51.660Z,41.80
2018-09-02T06:33:23.437Z,44.80
2018-09-02T06:35:55.207Z,39.20
2018-09-02T06:38:27.538Z,44.20
2018-09-02T06:40:59.355Z,39.20
2018-09-02T06:43:32.093Z,39.60
2018-09-02T06:46:03.723Z,48.00
2018-09-02T06:48:35.831Z,42.60
2018-09-02T06:51:07.611Z,38.00
2018-09-02T06:53:39.253Z,46.60
2018-09-02T06:56:10.970Z,45.00
2018-09-02T06:58:42.892Z,43.00
2018-09-02T07:01:14.378Z,45.40
2018-09-02T07:05:10.768Z,45.60
2018-09-02T07:07:42.796Z,48.60
2018-09-02T07:10:14.376Z,43.40
2018-09-02T07:12:46.120Z,48.80
2018-09-02T07:15:18.018Z,45.80
2018-09-02T07:17:49.678Z,57.40
2018-09-02T07:20:21.454Z,42.40
2018-09-02T07:22:53.068Z,52.60
2018-09-02T07:25:25.002Z,54.60
2018-09-02T07:27:56.643Z,50.80
2018-09-02T07:30:29.209Z,47.80
2018-09-02T07:33:00.951Z,41.60
2018-09-02T07:35:33.085Z,50.20
2018-09-02T07:38:05.080Z,52.20
2018-09-02T07:40:37.009Z,48.40
2018-09-02T07:43:08.739Z,51.40
2018-09-02T07:45:41.600Z,48.60
2018-09-02T07:48:13.262Z,41.60
2018-09-02T07:50:45.138Z,47.00
2018-09-02T07:53:16.848Z,48.60
2018-09-02T07:55:48.668Z,48.20
2018-09-02T07:58:20.458Z,51.20
2018-09-02T08:00:53.436Z,59.60
2018-09-02T08:03:25.148Z,49.20
2018-09-02T08:05:57.077Z,54.00
2018-09-02T08:08:28.779Z,54.80
2018-09-02T08:11:00.572Z,61.00
2018-09-02T08:13:32.175Z,49.20
2018-09-02T08:16:04.080Z,56.20
2018-09-02T08:18:35.796Z,51.60
2018-09-02T08:21:07.828Z,56.00
2018-09-02T08:23:39.756Z,49.40
2018-09-02T08:26:11.534Z,54.00
2018-09-02T08:28:43.563Z,58.60
2018-09-02T08:31:15.715Z,58.40
2018-09-02T08:33:47.366Z,58.40
2018-09-02T08:36:19.178Z,61.20
2018-09-02T08:38:50.916Z,57.60
2018-09-02T08:41:22.908Z,52.60
2018-09-02T08:43:54.679Z,50.60
2018-09-02T08:46:26.343Z,57.60
2018-09-02T08:48:57.747Z,61.60
2018-09-02T08:51:29.683Z,63.00
2018-09-02T08:54:01.359Z,58.00
2018-09-02T08:56:33.265Z,57.20
2018-09-02T08:59:05.036Z,65.40
2018-09-02T09:01:36.554Z,63.80
2018-09-02T09:04:08.353Z,60.60
2018-09-02T09:06:39.834Z,52.40
2018-09-02T09:09:11.674Z,59.20
2018-09-02T09:11:43.368Z,63.40
2018-09-02T09:14:15.108Z,62.60
2018-09-02T09:16:46.972Z,64.20
2018-09-02T09:19:18.778Z,59.40
2018-09-02T09:21:50.709Z,58.00
2018-09-02T09:24:22.495Z,55.00
2018-09-02T09:26:55.230Z,60.20
2018-09-02T09:29:27.092Z,60.40
2018-09-02T09:31:59.221Z,61.00
2018-09-02T09:34:32.877Z,59.20
2018-09-02T09:37:04.721Z,63.60
2018-09-02T09:39:36.648Z,60.40
2018-09-02T09:42:08.529Z,59.80
2018-09-02T09:44:40.200Z,64.80
2018-09-02T09:47:12.083Z,66.20
2018-09-02T09:49:43.858Z,65.40
2018-09-02T09:52:15.778Z,57.40
2018-09-02T09:54:47.409Z,63.60
2018-09-02T09:57:19.348Z,66.80
2018-09-02T09:59:50.953Z,66.60
2018-09-02T10:02:22.865Z,67.40
2018-09-02T10:04:54.583Z,74.40
2018-09-02T10:07:26.428Z,68.00
2018-09-02T10:09:57.902Z,69.40
2018-09-02T10:12:29.770Z,67.60
2018-09-02T10:15:01.424Z,68.40
2018-09-02T10:17:33.268Z,64.00
2018-09-02T10:20:04.986Z,67.60
2018-09-02T10:22:36.897Z,70.40
2018-09-02T10:25:08.475Z,64.20
2018-09-02T10:27:40.274Z,64.40
2018-09-02T10:30:12.023Z,70.00
2018-09-02T10:32:44.189Z,68.20
2018-09-02T10:35:16.069Z,70.80
2018-09-02T10:37:48.344Z,70.40
2018-09-02T10:40:20.063Z,72.40
2018-09-02T10:42:51.780Z,70.60
2018-09-02T10:45:23.520Z,68.20
2018-09-02T10:47:55.434Z,65.80
2018-09-02T10:50:27.047Z,65.20
2018-09-02T10:52:58.877Z,64.60
2018-09-02T10:55:30.466Z,58.80
2018-09-02T10:58:02.252Z,71.80
2018-09-02T11:00:34.002Z,66.40
2018-09-02T11:03:05.730Z,61.60
2018-09-02T11:05:37.370Z,66.60
2018-09-02T11:08:09.823Z,72.80
2018-09-02T11:10:41.597Z,69.80
2018-09-02T11:13:13.480Z,67.20
2018-09-02T11:15:45.556Z,66.20
2018-09-02T11:18:17.524Z,64.40
2018-09-02T11:20:49.221Z,66.40
2018-09-02T11:23:20.781Z,67.80
2018-09-02T11:25:52.797Z,67.00
2018-09-02T11:28:24.589Z,70.40
2018-09-02T11:30:56.874Z,72.40
2018-09-02T11:33:28.898Z,70.80
2018-09-02T11:36:00.912Z,72.00
2018-09-02T11:38:33.053Z,67.60
2018-09-02T11:41:04.831Z,68.60
2018-09-02T11:43:36.762Z,65.60
2018-09-02T11:46:08.582Z,70.80
2018-09-02T11:48:40.647Z,75.00
2018-09-02T11:51:12.146Z,74.00
2018-09-02T11:53:44.061Z,72.40
2018-09-02T11:56:15.760Z,70.00
2018-09-02T11:58:47.548Z,72.60
2018-09-02T12:01:19.356Z,69.80
2018-09-02T12:03:51.670Z,70.60
2018-09-02T13:41:19.726Z,70.20
2018-09-02T13:43:51.407Z,109.60
2018-09-02T13:46:23.258Z,91.60
2018-09-02T13:48:55.069Z,92.20
2018-09-02T13:51:27.099Z,96.40
2018-09-02T13:53:58.783Z,78.80
2018-09-02T13:56:30.651Z,84.00
2018-09-02T13:59:02.497Z,78.40
2018-09-02T14:01:34.122Z,69.60
2018-09-02T14:04:06.000Z,65.00
2018-09-02T14:06:37.841Z,59.40
2018-09-02T14:09:10.518Z,58.00
2018-09-02T14:11:42.505Z,50.80
2018-09-02T14:14:14.167Z,49.40
2018-09-02T14:16:46.390Z,51.20
2018-09-02T14:19:17.895Z,44.60
2018-09-02T14:21:49.862Z,41.60
2018-09-02T14:24:21.712Z,39.20
2018-09-02T14:26:53.527Z,41.00
2018-09-02T14:29:25.637Z,42.00
2018-09-02T14:31:57.554Z,40.60
2018-09-02T14:34:29.332Z,38.40
2018-09-02T14:37:01.179Z,36.20
2018-09-02T14:39:32.959Z,33.00
2018-09-02T14:42:05.980Z,32.80
2018-09-02T14:44:37.776Z,33.20
2018-09-02T14:47:09.807Z,34.00
2018-09-02T14:49:41.303Z,42.00
2018-09-02T14:52:13.211Z,35.60
2018-09-02T14:54:45.042Z,41.20
2018-09-02T14:57:17.137Z,36.60
2018-09-02T14:59:48.852Z,35.60
2018-09-02T15:02:20.705Z,33.80
2018-09-02T15:04:52.265Z,34.60
2018-09-02T15:07:24.086Z,42.60
2018-09-02T15:09:55.732Z,38.40
2018-09-02T15:12:27.883Z,37.80
2018-09-02T15:14:59.577Z,40.00
2018-09-02T15:17:31.433Z,37.60
2018-09-02T15:20:03.937Z,38.60
2018-09-02T15:22:36.015Z,35.20
2018-09-02T15:25:07.822Z,32.20
2018-09-02T15:27:39.778Z,32.00
2018-09-02T15:30:11.586Z,39.60
2018-09-02T15:32:43.192Z,30.60
2018-09-02T15:35:15.400Z,34.00
2018-09-02T15:37:47.240Z,32.20
2018-09-02T15:40:19.147Z,28.20
2018-09-02T15:42:51.049Z,31.20
2018-09-02T15:45:22.635Z,29.20
2018-09-02T15:47:54.457Z,28.60
2018-09-02T15:50:26.130Z,32.40
2018-09-02T15:52:57.976Z,28.40
2018-09-02T15:55:29.688Z,35.00
2018-09-02T15:58:01.230Z,32.60
2018-09-02T16:00:33.012Z,30.80
2018-09-02T16:03:04.548Z,34.40
2018-09-02T16:05:36.338Z,33.80
2018-09-02T16:08:08.106Z,35.00
2018-09-02T16:10:39.684Z,33.20
2018-09-02T16:13:11.654Z,33.20
2018-09-02T16:15:43.270Z,33.80
2018-09-02T16:18:15.203Z,36.20
2018-09-02T16:20:47.040Z,35.20
2018-09-02T16:23:18.939Z,39.60
2018-09-02T16:25:50.777Z,34.80
2018-09-02T16:28:22.564Z,34.80
2018-09-02T16:30:54.377Z,39.20
2018-09-02T16:33:26.140Z,39.60
2018-09-02T16:35:59.350Z,35.20
2018-09-02T16:38:31.319Z,39.80
2018-09-02T16:41:03.069Z,34.60
2018-09-02T16:43:34.809Z,38.40
2018-09-02T16:46:06.794Z,43.40
2018-09-02T16:48:38.647Z,37.80
2018-09-02T16:51:10.368Z,44.80
2018-09-02T16:53:42.336Z,29.60
2018-09-02T16:56:14.018Z,34.80
2018-09-02T16:58:46.174Z,36.80
2018-09-02T17:01:18.043Z,38.60
2018-09-02T17:03:54.675Z,37.00
2018-09-02T17:06:26.681Z,39.60
2018-09-02T17:08:58.313Z,37.60
2018-09-02T17:11:30.127Z,31.80
2018-09-02T17:14:01.999Z,36.40
2018-09-02T17:16:33.389Z,33.80
2018-09-02T17:19:26.948Z,35.40
2018-09-02T17:21:59.383Z,29.80
2018-09-02T17:24:31.218Z,30.80
2018-09-02T17:27:03.071Z,36.60
2018-09-02T17:29:34.681Z,34.00
2018-09-02T17:32:11.696Z,34.40
2018-09-02T17:34:43.222Z,34.40
2018-09-02T17:37:15.367Z,34.60
2018-09-02T17:39:47.231Z,40.20
2018-09-02T17:42:19.028Z,30.20
2018-09-02T17:44:50.903Z,35.40
2018-09-02T17:47:22.753Z,29.80
2018-09-02T17:49:54.533Z,40.40
2018-09-02T17:52:26.280Z,35.80
2018-09-02T17:54:58.819Z,43.80
2018-09-02T17:57:31.123Z,36.40
2018-09-02T18:00:03.127Z,37.60
2018-09-02T18:02:34.854Z,37.00
2018-09-02T18:05:06.466Z,29.20
2018-09-02T18:07:38.552Z,39.60
2018-09-02T18:10:10.320Z,40.80
2018-09-02T18:12:42.276Z,42.60
2018-09-02T18:15:13.888Z,38.00
2018-09-02T18:17:45.709Z,48.80
2018-09-02T18:20:17.651Z,47.40
2018-09-02T18:22:49.277Z,53.40
2018-09-02T18:25:21.111Z,55.60
2018-09-02T18:27:56.508Z,55.00
2018-09-02T18:30:28.312Z,50.20
2018-09-02T18:32:59.917Z,57.00
2018-09-02T18:35:31.949Z,54.00
2018-09-02T18:38:03.412Z,52.60
2018-09-02T18:40:35.353Z,49.80
2018-09-02T18:43:07.135Z,51.00
2018-09-02T18:45:39.092Z,53.40
2018-09-02T18:48:10.899Z,49.80
2018-09-02T18:50:42.723Z,55.80
2018-09-02T18:53:14.632Z,46.00
2018-09-02T18:55:46.379Z,49.60
2018-09-02T18:58:17.788Z,53.80
2018-09-02T19:00:49.715Z,54.80
2018-09-02T19:03:21.846Z,58.00
2018-09-02T19:05:53.532Z,55.40
2018-09-02T19:08:25.262Z,53.40
2018-09-02T19:10:57.188Z,53.00
2018-09-02T19:13:29.391Z,51.20
2018-09-02T19:16:01.021Z,56.60
2018-09-02T19:18:32.773Z,49.80
2018-09-02T19:21:04.670Z,49.80
2018-09-02T19:23:36.480Z,44.40
2018-09-02T19:26:08.558Z,50.80
2018-09-02T19:28:40.364Z,49.60
2018-09-02T19:31:11.878Z,48.80
2018-09-02T19:33:48.038Z,52.60
2018-09-02T19:36:19.828Z,54.00
2018-09-02T19:38:51.973Z,50.40
2018-09-02T19:41:24.195Z,50.40
2018-09-02T19:43:56.212Z,49.60
2018-09-02T19:46:27.964Z,52.00
2018-09-02T19:48:59.766Z,51.20
2018-09-02T19:51:31.499Z,56.20
2018-09-02T19:54:03.204Z,51.00
2018-09-02T19:56:34.997Z,58.00
2018-09-02T19:59:06.653Z,55.60
2018-09-02T20:01:38.992Z,52.80
2018-09-02T20:04:10.590Z,55.60
2018-09-02T20:06:42.504Z,53.20
2018-09-02T20:09:15.234Z,55.00
2018-09-02T20:11:47.146Z,53.80
2018-09-02T20:14:19.001Z,55.60
2018-09-02T20:16:50.887Z,49.60
2018-09-02T20:19:22.658Z,52.40
2018-09-02T20:21:54.672Z,52.80
2018-09-02T20:24:26.756Z,46.80
2018-09-02T20:26:58.659Z,57.40
2018-09-02T20:29:30.611Z,55.80
2018-09-02T20:32:02.594Z,53.80
2018-09-02T20:34:34.301Z,54.20
2018-09-02T20:37:06.484Z,54.40
2018-09-02T20:39:38.214Z,49.00
2018-09-02T20:42:10.205Z,53.80
2018-09-02T20:44:42.019Z,57.80
2018-09-02T20:47:13.881Z,56.60
2018-09-02T20:49:45.661Z,55.20
2018-09-02T20:52:17.310Z,54.40
2018-09-02T20:54:48.999Z,55.40
2018-09-02T20:57:20.741Z,58.20
2018-09-02T20:59:53.325Z,59.40
2018-09-02T21:02:25.363Z,53.40
2018-09-02T21:04:57.354Z,54.80
2018-09-02T21:07:28.964Z,51.80
2018-09-02T21:10:00.926Z,54.80
2018-09-02T21:12:36.920Z,48.80
2018-09-02T21:15:08.536Z,52.80
2018-09-02T21:17:40.694Z,51.20
2018-09-02T21:20:12.484Z,53.80
2018-09-02T21:22:44.465Z,52.80
2018-09-02T21:25:16.925Z,53.60
2018-09-02T21:27:48.763Z,55.60
2018-09-02T21:30:20.881Z,54.00
2018-09-02T21:32:52.514Z,50.80
2018-09-02T21:35:24.301Z,52.40
2018-09-02T21:37:56.434Z,51.60
2018-09-02T21:40:28.251Z,51.60
2018-09-02T21:43:00.101Z,56.40
2018-09-02T21:45:31.512Z,56.40
2018-09-02T21:48:03.448Z,55.20
2018-09-02T21:50:35.728Z,53.60
2018-09-02T21:53:08.358Z,50.80
2018-09-02T21:55:40.027Z,51.00
2018-09-02T21:58:11.924Z,50.60
2018-09-02T22:00:43.744Z,47.80
2018-09-02T22:03:15.620Z,48.20
2018-09-02T22:05:47.515Z,45.20
2018-09-02T22:08:19.141Z,50.20
2018-09-02T22:10:51.025Z,44.60
2018-09-02T22:13:23.093Z,47.20
2018-09-02T22:15:54.938Z,50.00
2018-09-02T22:18:26.791Z,50.40
2018-09-02T22:20:58.554Z,43.60
2018-09-02T22:23:30.217Z,46.40
2018-09-02T22:26:02.124Z,39.60
2018-09-02T22:28:34.049Z,50.40
2018-09-02T22:31:05.851Z,51.20
2018-09-02T22:33:38.009Z,39.60
2018-09-02T22:36:09.874Z,45.60
2018-09-02T22:38:41.755Z,49.00
2018-09-02T22:41:13.615Z,48.80
2018-09-02T22:43:46.166Z,42.40
2018-09-02T22:46:18.014Z,45.20
2018-09-02T22:48:49.901Z,41.60
2018-09-02T22:51:21.803Z,43.60
2018-09-02T22:53:53.693Z,43.40
2018-09-02T22:56:25.331Z,42.40
2018-09-02T22:58:57.182Z,41.80
2018-09-02T23:01:29.020Z,41.20
2018-09-02T23:04:00.856Z,37.80
2018-09-02T23:06:32.636Z,40.20
2018-09-02T23:09:04.754Z,45.00
2018-09-02T23:11:36.485Z,41.00
2018-09-02T23:14:09.463Z,32.00
2018-09-02T23:16:41.369Z,37.20
2018-09-02T23:19:13.308Z,36.80
2018-09-02T23:21:45.056Z,36.00
2018-09-02T23:24:17.282Z,32.00
2018-09-02T23:26:49.272Z,35.40
2018-09-02T23:29:21.124Z,38.20
2018-09-02T23:31:52.988Z,38.60
2018-09-02T23:34:25.771Z,30.80
2018-09-02T23:36:57.568Z,35.80
2018-09-02T23:39:29.325Z,28.80
2018-09-02T23:42:01.020Z,33.00
2018-09-02T23:44:33.113Z,36.00
2018-09-02T23:47:05.152Z,35.40
2018-09-02T23:49:37.053Z,32.40
2018-09-02T23:52:08.980Z,40.40
2018-09-02T23:54:40.920Z,36.40
2018-09-02T23:57:12.855Z,33.60
2018-09-02T23:59:44.599Z,37.60
